createdAt,value
2019-01-20T00:00:11.841Z,96.96
2019-01-20T00:01:11.803Z,96.58
2019-01-20T00:02:11.775Z,96.77
2019-01-20T00:03:11.749Z,96.68
2019-01-20T00:04:11.718Z,96.77
2019-01-20T00:05:11.694Z,96.77
2019-01-20T00:06:11.670Z,96.68
2019-01-20T00:07:11.638Z,96.96
2019-01-20T00:08:11.612Z,97.05
2019-01-20T00:09:11.593Z,96.39
2019-01-20T00:10:11.553Z,96.96
2019-01-20T00:11:16.537Z,96.86
2019-01-20T00:12:11.506Z,97.15
2019-01-20T00:13:11.469Z,97.15
2019-01-20T00:14:11.444Z,96.49
2019-01-20T00:15:11.417Z,96.39
2019-01-20T00:16:11.386Z,96.01
2019-01-20T00:17:11.357Z,96.20
2019-01-20T00:18:11.330Z,95.92
2019-01-20T00:19:11.302Z,96.20
2019-01-20T00:20:11.302Z,95.83
2019-01-20T00:21:11.252Z,95.83
2019-01-20T00:22:11.227Z,96.58
2019-01-20T00:23:11.191Z,96.39
2019-01-20T00:24:11.164Z,96.86
2019-01-20T00:25:11.240Z,96.77
2019-01-20T00:26:11.108Z,96.77
2019-01-20T00:27:11.078Z,97.81
2019-01-20T00:28:11.055Z,97.24
2019-01-20T00:29:11.027Z,98.10
2019-01-20T00:30:10.997Z,97.91
2019-01-20T00:31:10.968Z,98.10
2019-01-20T00:32:10.942Z,98.28
2019-01-20T00:33:10.911Z,98.10
2019-01-20T00:34:10.970Z,97.62
2019-01-20T00:35:10.870Z,97.24
2019-01-20T00:36:10.836Z,96.86
2019-01-20T00:37:10.803Z,97.05
2019-01-20T00:38:10.772Z,96.86
2019-01-20T00:39:10.746Z,96.96
2019-01-20T00:40:10.718Z,96.68
2019-01-20T00:41:10.691Z,96.96
2019-01-20T00:42:10.661Z,96.77
2019-01-20T00:43:10.635Z,97.53
2019-01-20T00:44:10.606Z,97.34
2019-01-20T00:45:10.583Z,97.15
2019-01-20T00:46:10.553Z,98.00
2019-01-20T00:47:10.519Z,97.72
2019-01-20T00:48:10.496Z,97.91
2019-01-20T00:49:10.464Z,97.81
2019-01-20T00:50:10.436Z,97.91
2019-01-20T00:51:10.408Z,96.96
2019-01-20T00:52:10.380Z,96.30
2019-01-20T00:53:10.352Z,97.05
2019-01-20T00:54:10.326Z,97.95
2019-01-20T00:55:10.302Z,98.61
2019-01-20T00:56:10.270Z,99.93
2019-01-20T00:57:10.242Z,99.99
2019-01-20T00:58:10.213Z,99.99
2019-01-20T00:59:10.186Z,99.99
2019-01-20T01:00:10.156Z,99.99
2019-01-20T01:01:10.128Z,99.99
2019-01-20T01:02:10.100Z,99.99
2019-01-20T01:03:10.071Z,99.99
2019-01-20T01:04:10.046Z,99.99
2019-01-20T01:05:10.017Z,99.99
2019-01-20T01:06:09.992Z,99.99
2019-01-20T01:07:09.961Z,99.99
2019-01-20T01:08:09.937Z,99.99
2019-01-20T01:09:09.906Z,99.99
2019-01-20T01:10:09.876Z,99.99
2019-01-20T01:11:09.849Z,99.99
2019-01-20T01:12:09.820Z,99.99
2019-01-20T01:13:09.794Z,99.99
2019-01-20T01:14:09.767Z,99.99
2019-01-20T01:15:09.736Z,99.99
2019-01-20T01:16:09.708Z,99.99
2019-01-20T01:17:09.679Z,99.99
2019-01-20T01:18:09.664Z,99.99
2019-01-20T01:19:09.624Z,99.99
2019-01-20T01:20:09.597Z,99.99
2019-01-20T01:21:09.567Z,99.99
2019-01-20T01:22:09.539Z,99.99
2019-01-20T01:23:09.512Z,99.99
2019-01-20T01:24:09.484Z,99.99
2019-01-20T01:25:09.455Z,99.99
2019-01-20T01:26:09.426Z,99.99
2019-01-20T01:27:09.400Z,99.99
2019-01-20T01:28:09.383Z,99.99
2019-01-20T01:29:09.342Z,99.99
2019-01-20T01:30:09.312Z,99.99
2019-01-20T01:31:09.293Z,99.99
2019-01-20T01:32:09.262Z,99.99
2019-01-20T01:33:09.230Z,99.99
2019-01-20T01:34:09.201Z,99.99
2019-01-20T01:35:09.173Z,99.99
2019-01-20T01:36:09.143Z,99.99
2019-01-20T01:37:09.115Z,99.99
2019-01-20T01:38:09.096Z,99.99
2019-01-20T01:39:09.060Z,99.99
2019-01-20T01:40:09.042Z,99.99
2019-01-20T01:41:09.001Z,99.99
2019-01-20T01:42:08.972Z,99.99
2019-01-20T01:43:08.947Z,99.99
2019-01-20T01:44:08.924Z,99.99
2019-01-20T01:45:08.894Z,99.99
2019-01-20T01:46:08.867Z,99.99
2019-01-20T01:47:08.835Z,99.99
2019-01-20T01:48:08.809Z,99.99
2019-01-20T01:49:08.777Z,99.99
2019-01-20T01:50:08.750Z,99.99
2019-01-20T01:51:08.722Z,99.99
2019-01-20T01:52:08.692Z,99.99
2019-01-20T01:53:08.662Z,99.99
2019-01-20T01:54:08.635Z,99.99
2019-01-20T01:55:08.608Z,99.99
2019-01-20T01:56:08.590Z,99.99
2019-01-20T01:57:08.550Z,99.99
2019-01-20T01:58:08.525Z,99.99
2019-01-20T01:59:08.495Z,99.99
2019-01-20T02:00:08.466Z,99.99
2019-01-20T02:01:08.445Z,99.99
2019-01-20T02:02:08.408Z,99.99
2019-01-20T02:03:08.383Z,99.99
2019-01-20T02:04:08.366Z,99.99
2019-01-20T02:05:08.336Z,99.99
2019-01-20T02:06:08.303Z,99.99
2019-01-20T02:07:08.272Z,99.99
2019-01-20T02:08:08.241Z,99.99
2019-01-20T02:09:08.218Z,99.99
2019-01-20T02:10:08.188Z,99.99
2019-01-20T02:11:08.154Z,99.99
2019-01-20T02:12:08.127Z,99.99
2019-01-20T02:13:08.102Z,99.99
2019-01-20T02:14:08.071Z,99.99
2019-01-20T02:15:08.042Z,99.99
2019-01-20T02:16:08.014Z,99.99
2019-01-20T02:17:07.984Z,99.99
2019-01-20T02:18:07.955Z,99.99
2019-01-20T02:19:07.926Z,99.99
2019-01-20T02:20:07.907Z,99.99
2019-01-20T02:21:07.872Z,99.99
2019-01-20T02:22:07.843Z,99.99
2019-01-20T02:23:07.815Z,99.99
2019-01-20T02:24:07.795Z,99.99
2019-01-20T02:25:07.757Z,99.99
2019-01-20T02:26:07.729Z,99.99
2019-01-20T02:27:07.701Z,99.99
2019-01-20T02:28:07.671Z,99.99
2019-01-20T02:29:07.643Z,99.99
2019-01-20T02:30:07.632Z,99.99
2019-01-20T02:31:07.587Z,99.99
2019-01-20T02:32:07.560Z,99.99
2019-01-20T02:33:07.532Z,99.99
2019-01-20T02:34:07.501Z,99.99
2019-01-20T02:35:07.473Z,99.99
2019-01-20T02:36:07.444Z,99.99
2019-01-20T02:37:07.417Z,99.99
2019-01-20T02:38:07.391Z,99.99
2019-01-20T02:39:07.360Z,99.99
2019-01-20T02:40:07.333Z,99.99
2019-01-20T02:41:07.303Z,99.99
2019-01-20T02:42:07.275Z,99.99
2019-01-20T02:43:07.247Z,99.99
2019-01-20T02:44:07.229Z,99.99
2019-01-20T02:45:07.191Z,99.99
2019-01-20T02:46:07.162Z,99.99
2019-01-20T02:47:07.136Z,99.99
2019-01-20T02:48:07.102Z,99.99
2019-01-20T02:49:07.077Z,99.99
2019-01-20T02:50:07.049Z,99.99
2019-01-20T02:51:07.017Z,99.99
2019-01-20T02:52:06.990Z,99.99
2019-01-20T02:53:06.963Z,99.99
2019-01-20T02:54:06.947Z,99.99
2019-01-20T02:55:06.904Z,99.99
2019-01-20T02:56:06.881Z,99.99
2019-01-20T02:57:06.846Z,99.99
2019-01-20T02:58:06.822Z,99.99
2019-01-20T02:59:06.813Z,99.99
2019-01-20T03:00:06.763Z,99.99
2019-01-20T03:01:06.735Z,99.99
2019-01-20T03:02:06.705Z,99.99
2019-01-20T03:03:06.676Z,99.99
2019-01-20T03:04:06.651Z,99.99
2019-01-20T03:05:06.619Z,99.99
2019-01-20T03:06:06.590Z,99.99
2019-01-20T03:07:06.564Z,99.99
2019-01-20T03:08:06.535Z,99.99
2019-01-20T03:09:06.506Z,99.99
2019-01-20T03:10:06.479Z,99.99
2019-01-20T03:11:06.457Z,99.99
2019-01-20T03:12:06.424Z,99.99
2019-01-20T03:13:06.392Z,99.99
2019-01-20T03:14:06.364Z,99.99
2019-01-20T03:15:06.336Z,99.99
2019-01-20T03:16:06.316Z,99.99
2019-01-20T03:17:06.283Z,99.99
2019-01-20T03:18:06.257Z,99.99
2019-01-20T03:19:06.221Z,99.99
2019-01-20T03:20:06.193Z,99.99
2019-01-20T03:21:06.165Z,99.99
2019-01-20T03:22:06.137Z,99.99
2019-01-20T03:23:06.109Z,99.99
2019-01-20T03:24:06.084Z,99.99
2019-01-20T03:25:06.051Z,99.99
2019-01-20T03:26:06.024Z,99.99
2019-01-20T03:27:06.003Z,99.99
2019-01-20T03:28:05.968Z,99.99
2019-01-20T03:29:05.940Z,99.99
2019-01-20T03:30:05.933Z,99.99
2019-01-20T03:31:05.882Z,99.99
2019-01-20T03:32:05.857Z,99.99
2019-01-20T03:33:05.824Z,99.99
2019-01-20T03:34:05.802Z,99.99
2019-01-20T03:35:05.767Z,99.99
2019-01-20T03:36:05.737Z,99.99
2019-01-20T03:37:05.708Z,99.99
2019-01-20T03:38:05.681Z,99.99
2019-01-20T03:39:05.655Z,99.99
2019-01-20T03:40:05.625Z,99.99
2019-01-20T03:41:05.595Z,99.99
2019-01-20T03:42:11.923Z,99.99
2019-01-20T03:43:05.539Z,99.99
2019-01-20T03:44:05.508Z,99.99
2019-01-20T03:45:05.484Z,99.99
2019-01-20T03:46:05.450Z,99.99
2019-01-20T03:47:05.424Z,99.99
2019-01-20T03:48:05.396Z,99.99
2019-01-20T03:49:05.366Z,99.99
2019-01-20T03:50:05.336Z,99.99
2019-01-20T03:51:05.309Z,99.99
2019-01-20T03:52:05.282Z,99.99
2019-01-20T03:53:05.253Z,99.99
2019-01-20T03:54:05.235Z,99.99
2019-01-20T03:55:05.193Z,99.99
2019-01-20T03:56:05.166Z,99.99
2019-01-20T03:57:05.137Z,99.99
2019-01-20T03:58:05.109Z,99.99
2019-01-20T03:59:05.082Z,99.99
2019-01-20T04:00:05.054Z,99.99
2019-01-20T04:01:05.025Z,99.99
2019-01-20T04:02:04.996Z,99.99
2019-01-20T04:03:04.967Z,99.99
2019-01-20T04:04:04.937Z,99.99
2019-01-20T04:05:04.909Z,99.99
2019-01-20T04:06:04.881Z,99.99
2019-01-20T04:07:04.853Z,99.99
2019-01-20T04:08:04.827Z,99.99
2019-01-20T04:09:04.802Z,99.99
2019-01-20T04:10:04.768Z,99.99
2019-01-20T04:11:04.738Z,99.99
2019-01-20T04:12:04.711Z,99.99
2019-01-20T04:13:04.680Z,99.99
2019-01-20T04:14:04.652Z,99.99
2019-01-20T04:15:04.626Z,99.99
2019-01-20T04:16:04.600Z,99.99
2019-01-20T04:17:04.572Z,99.99
2019-01-20T04:18:04.539Z,99.99
2019-01-20T04:19:04.515Z,99.99
2019-01-20T04:20:04.484Z,99.99
2019-01-20T04:21:04.454Z,99.99
2019-01-20T04:22:04.427Z,99.99
2019-01-20T04:23:04.399Z,99.99
2019-01-20T04:24:04.368Z,99.99
2019-01-20T04:25:04.338Z,99.99
2019-01-20T04:26:04.309Z,99.99
2019-01-20T04:27:04.280Z,99.99
2019-01-20T04:28:04.260Z,99.99
2019-01-20T04:29:04.226Z,99.99
2019-01-20T04:30:04.194Z,99.99
2019-01-20T04:31:04.167Z,99.99
2019-01-20T04:32:04.139Z,99.99
2019-01-20T04:33:04.113Z,99.99
2019-01-20T04:34:04.080Z,99.99
2019-01-20T04:35:04.051Z,99.99
2019-01-20T04:36:04.024Z,99.99
2019-01-20T04:37:03.994Z,99.99
2019-01-20T04:38:03.966Z,99.99
2019-01-20T04:39:03.954Z,99.99
2019-01-20T04:40:03.909Z,99.99
2019-01-20T04:41:03.880Z,99.99
2019-01-20T04:42:03.858Z,99.99
2019-01-20T04:43:03.823Z,99.99
2019-01-20T04:44:03.799Z,99.99
2019-01-20T04:45:03.767Z,99.99
2019-01-20T04:46:03.738Z,99.99
2019-01-20T04:47:03.719Z,99.99
2019-01-20T04:48:03.679Z,99.99
2019-01-20T04:49:03.650Z,99.99
2019-01-20T04:50:03.629Z,99.99
2019-01-20T04:51:03.605Z,99.99
2019-01-20T04:52:03.567Z,99.99
2019-01-20T04:53:03.537Z,99.99
2019-01-20T04:54:03.510Z,99.99
2019-01-20T04:55:03.493Z,99.99
2019-01-20T04:56:03.454Z,99.99
2019-01-20T04:57:03.424Z,99.99
2019-01-20T04:58:03.395Z,99.99
2019-01-20T04:59:03.368Z,99.99
2019-01-20T05:00:03.339Z,99.99
2019-01-20T05:01:03.308Z,99.99
2019-01-20T05:02:03.281Z,99.99
2019-01-20T05:03:03.251Z,99.99
2019-01-20T05:04:03.289Z,99.99
2019-01-20T05:05:03.194Z,99.99
2019-01-20T05:06:03.169Z,99.99
2019-01-20T05:07:03.137Z,99.99
2019-01-20T05:08:03.186Z,99.99
2019-01-20T05:09:03.084Z,99.99
2019-01-20T05:10:03.054Z,99.99
2019-01-20T05:11:03.024Z,99.99
2019-01-20T05:12:02.997Z,99.99
2019-01-20T05:13:02.965Z,99.99
2019-01-20T05:14:02.941Z,99.99
2019-01-20T05:15:02.913Z,99.99
2019-01-20T05:16:02.880Z,99.99
2019-01-20T05:17:02.850Z,99.99
2019-01-20T05:18:02.823Z,99.99
2019-01-20T05:19:02.807Z,99.99
2019-01-20T05:20:02.768Z,99.99
2019-01-20T05:21:02.738Z,99.99
2019-01-20T05:22:02.709Z,99.99
2019-01-20T05:23:02.680Z,99.99
2019-01-20T05:24:02.652Z,99.99
2019-01-20T05:25:02.626Z,99.99
2019-01-20T05:26:02.596Z,99.99
2019-01-20T05:27:02.563Z,99.99
2019-01-20T05:28:02.535Z,99.99
2019-01-20T05:29:02.506Z,99.99
2019-01-20T05:30:02.481Z,99.99
2019-01-20T05:31:02.453Z,99.99
2019-01-20T05:32:02.428Z,99.99
2019-01-20T05:33:02.392Z,99.99
2019-01-20T05:34:02.367Z,99.99
2019-01-20T05:35:02.336Z,99.99
2019-01-20T05:36:02.316Z,99.99
2019-01-20T05:37:02.278Z,99.99
2019-01-20T05:38:02.250Z,99.99
2019-01-20T05:39:02.222Z,99.99
2019-01-20T05:40:02.199Z,99.99
2019-01-20T05:41:02.177Z,99.99
2019-01-20T05:42:02.152Z,99.99
2019-01-20T05:43:02.105Z,99.99
2019-01-20T05:44:02.078Z,99.99
2019-01-20T05:45:02.050Z,99.99
2019-01-20T05:46:02.020Z,99.99
2019-01-20T05:47:01.990Z,99.99
2019-01-20T05:48:01.963Z,99.99
2019-01-20T05:49:01.938Z,99.99
2019-01-20T05:50:01.906Z,99.99
2019-01-20T05:51:01.882Z,99.99
2019-01-20T05:52:01.909Z,99.99
2019-01-20T05:53:01.819Z,99.99
2019-01-20T05:54:01.793Z,99.99
2019-01-20T05:55:01.773Z,99.99
2019-01-20T05:56:02.026Z,99.99
2019-01-20T05:57:01.703Z,99.99
2019-01-20T05:58:01.684Z,99.99
2019-01-20T05:59:01.650Z,99.99
2019-01-20T06:00:01.617Z,99.99
2019-01-20T06:01:01.591Z,99.99
2019-01-20T06:02:01.560Z,99.99
2019-01-20T06:03:01.549Z,99.99
2019-01-20T06:04:01.508Z,99.99
2019-01-20T06:05:01.473Z,99.99
2019-01-20T06:06:01.457Z,99.99
2019-01-20T06:07:01.420Z,99.99
2019-01-20T06:08:01.390Z,99.99
2019-01-20T06:09:01.364Z,99.99
2019-01-20T06:10:01.332Z,99.99
2019-01-20T06:11:01.305Z,99.99
2019-01-20T06:12:01.273Z,99.99
2019-01-20T06:13:01.252Z,99.99
2019-01-20T06:14:01.218Z,99.99
2019-01-20T06:15:01.193Z,99.99
2019-01-20T06:16:01.960Z,99.99
2019-01-20T06:17:01.144Z,99.99
2019-01-20T06:18:01.111Z,99.99
2019-01-20T06:19:01.079Z,99.99
2019-01-20T06:20:01.046Z,99.99
2019-01-20T06:21:01.015Z,99.99
2019-01-20T06:22:00.987Z,99.99
2019-01-20T06:23:00.961Z,99.99
2019-01-20T06:24:00.930Z,99.99
2019-01-20T06:25:00.900Z,99.99
2019-01-20T06:26:00.880Z,99.99
2019-01-20T06:27:00.845Z,99.99
2019-01-20T06:28:00.823Z,99.99
2019-01-20T06:29:00.790Z,99.99
2019-01-20T06:30:00.755Z,99.99
2019-01-20T06:31:00.727Z,99.99
2019-01-20T06:32:00.704Z,99.99
2019-01-20T06:33:00.672Z,99.99
2019-01-20T06:34:00.641Z,99.99
2019-01-20T06:35:00.616Z,99.99
2019-01-20T06:36:00.587Z,99.99
2019-01-20T06:37:00.556Z,99.99
2019-01-20T06:38:00.524Z,99.99
2019-01-20T06:39:00.505Z,99.99
2019-01-20T06:40:00.467Z,99.99
2019-01-20T06:41:00.441Z,99.99
2019-01-20T06:42:00.410Z,99.99
2019-01-20T06:43:02.291Z,99.99
2019-01-20T06:44:00.354Z,99.99
2019-01-20T06:45:00.369Z,99.99
2019-01-20T06:46:00.295Z,99.99
2019-01-20T06:47:01.180Z,99.99
2019-01-20T06:48:00.239Z,99.99
2019-01-20T06:49:00.209Z,99.99
2019-01-20T06:50:00.191Z,99.99
2019-01-20T06:51:00.150Z,99.99
2019-01-20T06:52:00.129Z,99.99
2019-01-20T06:53:00.095Z,99.99
2019-01-20T06:54:00.075Z,99.99
2019-01-20T06:55:00.036Z,99.99
2019-01-20T06:56:00.013Z,99.99
2019-01-20T06:56:59.979Z,99.99
2019-01-20T06:57:59.955Z,99.99
2019-01-20T06:58:59.919Z,99.99
2019-01-20T06:59:59.891Z,99.99
2019-01-20T07:00:59.866Z,99.99
2019-01-20T07:01:59.842Z,99.99
2019-01-20T07:02:59.806Z,99.99
2019-01-20T07:03:59.780Z,99.99
2019-01-20T07:04:59.747Z,99.99
2019-01-20T07:05:59.719Z,99.99
2019-01-20T07:06:59.695Z,99.99
2019-01-20T07:07:59.662Z,99.99
2019-01-20T07:08:59.631Z,99.99
2019-01-20T07:09:59.603Z,99.99
2019-01-20T07:10:59.574Z,99.99
2019-01-20T07:11:59.545Z,99.99
2019-01-20T07:12:59.517Z,99.99
2019-01-20T07:13:59.488Z,99.99
2019-01-20T07:14:59.460Z,99.99
2019-01-20T07:15:59.431Z,99.99
2019-01-20T07:16:59.405Z,99.99
2019-01-20T07:17:59.373Z,99.99
2019-01-20T07:18:59.344Z,99.99
2019-01-20T07:19:59.315Z,99.99
2019-01-20T07:20:59.296Z,99.99
2019-01-20T07:21:59.258Z,99.99
2019-01-20T07:22:59.233Z,99.99
2019-01-20T07:23:59.200Z,99.99
2019-01-20T07:24:59.172Z,99.99
2019-01-20T07:25:59.144Z,99.99
2019-01-20T07:26:59.119Z,99.99
2019-01-20T07:27:59.094Z,99.99
2019-01-20T07:28:59.056Z,99.99
2019-01-20T07:29:59.027Z,99.99
2019-01-20T07:30:58.998Z,99.99
2019-01-20T07:31:58.973Z,99.99
2019-01-20T07:32:58.948Z,99.99
2019-01-20T07:33:58.919Z,99.99
2019-01-20T07:34:58.891Z,99.99
2019-01-20T07:35:58.854Z,99.99
2019-01-20T07:36:58.827Z,99.99
2019-01-20T07:37:58.797Z,99.99
2019-01-20T07:38:58.770Z,99.99
2019-01-20T07:39:58.745Z,99.99
2019-01-20T07:40:58.712Z,99.99
2019-01-20T07:41:58.690Z,99.99
2019-01-20T07:42:58.654Z,99.99
2019-01-20T07:43:58.628Z,99.99
2019-01-20T07:44:58.595Z,99.99
2019-01-20T07:45:58.570Z,99.99
2019-01-20T07:46:58.537Z,99.99
2019-01-20T07:47:58.511Z,99.99
2019-01-20T07:48:58.484Z,99.99
2019-01-20T07:49:58.451Z,99.99
2019-01-20T07:50:58.424Z,99.99
2019-01-20T07:51:58.400Z,99.99
2019-01-20T07:52:58.372Z,99.99
2019-01-20T07:53:58.338Z,99.99
2019-01-20T07:54:58.308Z,99.99
2019-01-20T07:55:58.279Z,99.99
2019-01-20T07:56:58.257Z,99.99
2019-01-20T07:57:58.225Z,99.99
2019-01-20T07:58:58.192Z,99.99
2019-01-20T07:59:58.165Z,99.99
2019-01-20T08:00:58.133Z,99.99
2019-01-20T08:01:58.114Z,99.99
2019-01-20T08:02:58.077Z,99.99
2019-01-20T08:03:58.053Z,99.99
2019-01-20T08:04:58.019Z,99.99
2019-01-20T08:05:57.992Z,99.99
2019-01-20T08:06:57.967Z,99.99
2019-01-20T08:07:57.944Z,99.99
2019-01-20T08:08:57.908Z,99.99
2019-01-20T08:09:57.877Z,99.99
2019-01-20T08:10:57.847Z,99.99
2019-01-20T08:11:57.819Z,99.99
2019-01-20T08:12:57.787Z,99.99
2019-01-20T08:13:57.767Z,99.99
2019-01-20T08:14:57.731Z,99.99
2019-01-20T08:15:57.729Z,99.99
2019-01-20T08:16:57.675Z,99.99
2019-01-20T08:17:57.651Z,99.99
2019-01-20T08:18:57.616Z,99.99
2019-01-20T08:19:57.593Z,99.99
2019-01-20T08:20:57.565Z,99.99
2019-01-20T08:21:57.531Z,99.99
2019-01-20T08:22:57.501Z,99.99
2019-01-20T08:23:57.482Z,99.99
2019-01-20T08:24:57.452Z,99.99
2019-01-20T08:25:57.416Z,99.99
2019-01-20T08:26:57.397Z,99.99
2019-01-20T08:27:57.359Z,99.99
2019-01-20T08:28:57.330Z,99.99
2019-01-20T08:29:57.301Z,99.99
2019-01-20T08:30:57.272Z,99.99
2019-01-20T08:31:57.245Z,99.99
2019-01-20T08:32:57.221Z,99.99
2019-01-20T08:33:57.188Z,99.99
2019-01-20T08:34:57.160Z,99.99
2019-01-20T08:35:57.130Z,99.99
2019-01-20T08:36:57.101Z,99.99
2019-01-20T08:37:57.071Z,99.99
2019-01-20T08:38:57.069Z,99.99
2019-01-20T08:39:57.026Z,99.99
2019-01-20T08:40:56.984Z,99.99
2019-01-20T08:41:56.964Z,99.99
2019-01-20T08:42:56.927Z,99.99
2019-01-20T08:43:56.903Z,99.99
2019-01-20T08:44:56.878Z,99.99
2019-01-20T08:45:56.845Z,99.99
2019-01-20T08:46:56.815Z,99.99
2019-01-20T08:47:57.871Z,99.99
2019-01-20T08:48:56.758Z,99.99
2019-01-20T08:49:56.728Z,99.99
2019-01-20T08:50:56.699Z,99.99
2019-01-20T08:51:56.674Z,99.99
2019-01-20T08:52:56.643Z,99.99
2019-01-20T08:53:56.624Z,99.99
2019-01-20T08:54:56.587Z,99.99
2019-01-20T08:55:57.384Z,99.99
2019-01-20T08:56:56.534Z,99.99
2019-01-20T08:57:56.503Z,99.99
2019-01-20T08:58:56.478Z,99.99
2019-01-20T08:59:56.447Z,99.99
2019-01-20T09:00:56.424Z,99.99
2019-01-20T09:01:56.393Z,99.99
2019-01-20T09:02:56.364Z,99.99
2019-01-20T09:03:56.337Z,99.99
2019-01-20T09:04:56.314Z,99.99
2019-01-20T09:05:56.275Z,99.99
2019-01-20T09:06:56.252Z,99.99
2019-01-20T09:07:56.221Z,99.99
2019-01-20T09:08:56.191Z,99.99
2019-01-20T09:09:56.165Z,99.99
2019-01-20T09:10:56.143Z,99.99
2019-01-20T09:11:56.111Z,99.99
2019-01-20T09:12:56.082Z,99.99
2019-01-20T09:13:56.048Z,99.99
2019-01-20T09:14:56.021Z,99.99
2019-01-20T09:15:55.990Z,99.99
2019-01-20T09:16:55.968Z,99.99
2019-01-20T09:17:55.937Z,99.99
2019-01-20T09:18:55.908Z,99.99
2019-01-20T09:19:55.885Z,99.99
2019-01-20T09:20:55.850Z,99.99
2019-01-20T09:21:55.827Z,99.99
2019-01-20T09:22:55.793Z,99.99
2019-01-20T09:23:55.772Z,99.99
2019-01-20T09:24:55.748Z,99.99
2019-01-20T09:25:55.712Z,99.99
2019-01-20T09:26:55.686Z,99.99
2019-01-20T09:27:55.652Z,99.99
2019-01-20T09:28:55.629Z,99.99
2019-01-20T09:29:55.597Z,99.99
2019-01-20T09:30:55.565Z,99.99
2019-01-20T09:31:55.546Z,99.99
2019-01-20T09:32:55.510Z,99.99
2019-01-20T09:33:55.488Z,99.99
2019-01-20T09:34:55.462Z,99.99
2019-01-20T09:35:55.425Z,99.99
2019-01-20T09:36:55.395Z,99.99
2019-01-20T09:37:55.372Z,99.99
2019-01-20T09:38:55.342Z,99.99
2019-01-20T09:39:55.314Z,99.88
2019-01-20T09:40:55.282Z,99.88
2019-01-20T09:41:55.254Z,99.51
2019-01-20T09:42:55.244Z,99.98
2019-01-20T09:43:55.204Z,99.60
2019-01-20T09:44:55.176Z,99.60
2019-01-20T09:45:55.141Z,99.04
2019-01-20T09:46:55.130Z,99.41
2019-01-20T09:47:55.093Z,98.75
2019-01-20T09:48:55.061Z,98.66
2019-01-20T09:49:55.033Z,98.57
2019-01-20T09:50:55.004Z,98.94
2019-01-20T09:51:54.973Z,98.38
2019-01-20T09:52:54.955Z,98.38
2019-01-20T09:53:54.933Z,98.57
2019-01-20T09:54:54.889Z,98.85
2019-01-20T09:55:54.867Z,98.66
2019-01-20T09:56:54.831Z,98.10
2019-01-20T09:57:54.807Z,98.57
2019-01-20T09:58:54.783Z,98.66
2019-01-20T09:59:54.748Z,98.66
2019-01-20T10:00:54.727Z,98.24
2019-01-20T10:01:54.690Z,97.43
2019-01-20T10:02:54.672Z,97.53
2019-01-20T10:03:54.635Z,97.77
2019-01-20T10:04:54.607Z,97.58
2019-01-20T10:05:54.587Z,96.82
2019-01-20T10:06:54.552Z,97.10
2019-01-20T10:07:54.535Z,96.82
2019-01-20T10:08:54.497Z,97.01
2019-01-20T10:09:54.471Z,96.91
2019-01-20T10:10:54.441Z,96.91
2019-01-20T10:11:54.423Z,96.54
2019-01-20T10:12:54.388Z,96.63
2019-01-20T10:13:55.002Z,96.63
2019-01-20T10:14:54.335Z,96.54
2019-01-20T10:15:54.300Z,96.44
2019-01-20T10:16:54.271Z,96.82
2019-01-20T10:17:54.241Z,97.01
2019-01-20T10:18:54.235Z,96.91
2019-01-20T10:19:54.189Z,96.63
2019-01-20T10:20:54.167Z,96.06
2019-01-20T10:21:54.138Z,95.40
2019-01-20T10:22:54.113Z,95.59
2019-01-20T10:23:54.076Z,95.50
2019-01-20T10:24:54.047Z,95.68
2019-01-20T10:25:54.029Z,95.68
2019-01-20T10:26:54.008Z,95.68
2019-01-20T10:27:53.968Z,95.59
2019-01-20T10:28:53.941Z,95.40
2019-01-20T10:29:53.905Z,95.68
2019-01-20T10:30:53.881Z,95.50
2019-01-20T10:31:53.854Z,95.78
2019-01-20T10:32:53.837Z,95.40
2019-01-20T10:33:53.801Z,95.50
2019-01-20T10:34:53.775Z,95.78
2019-01-20T10:35:53.738Z,95.78
2019-01-20T10:36:53.709Z,95.87
2019-01-20T10:37:53.685Z,95.59
2019-01-20T10:38:53.656Z,95.97
2019-01-20T10:39:53.626Z,95.40
2019-01-20T10:40:53.595Z,94.93
2019-01-20T10:41:53.598Z,94.84
2019-01-20T10:42:53.546Z,94.74
2019-01-20T10:43:53.519Z,95.07
2019-01-20T10:44:53.493Z,95.26
2019-01-20T10:45:53.458Z,95.21
2019-01-20T10:46:53.430Z,96.30
2019-01-20T10:47:53.401Z,96.11
2019-01-20T10:48:53.377Z,95.26
2019-01-20T10:49:53.362Z,94.70
2019-01-20T10:50:53.322Z,94.41
2019-01-20T10:51:53.291Z,94.70
2019-01-20T10:52:53.263Z,94.79
2019-01-20T10:53:53.255Z,94.41
2019-01-20T10:54:53.212Z,94.70
2019-01-20T10:55:53.178Z,94.41
2019-01-20T10:56:53.155Z,94.60
2019-01-20T10:57:53.130Z,94.32
2019-01-20T10:58:53.096Z,94.60
2019-01-20T10:59:53.073Z,94.22
2019-01-20T11:00:53.047Z,94.60
2019-01-20T11:01:53.011Z,94.41
2019-01-20T11:02:52.987Z,93.75
2019-01-20T11:03:52.969Z,93.75
2019-01-20T11:04:57.295Z,93.56
2019-01-20T11:05:52.903Z,93.28
2019-01-20T11:06:52.882Z,93.18
2019-01-20T11:07:52.852Z,93.47
2019-01-20T11:08:52.834Z,93.47
2019-01-20T11:09:52.801Z,92.90
2019-01-20T11:10:52.771Z,92.80
2019-01-20T11:11:52.736Z,91.96
2019-01-20T11:12:52.705Z,91.29
2019-01-20T11:13:52.677Z,90.91
2019-01-20T11:14:52.664Z,91.48
2019-01-20T11:15:52.623Z,91.48
2019-01-20T11:16:52.606Z,91.39
2019-01-20T11:17:52.979Z,90.35
2019-01-20T11:18:52.548Z,90.44
2019-01-20T11:19:52.516Z,89.69
2019-01-20T11:20:52.494Z,89.26
2019-01-20T11:21:52.457Z,89.26
2019-01-20T11:22:52.438Z,88.79
2019-01-20T11:23:52.407Z,88.69
2019-01-20T11:24:52.395Z,88.50
2019-01-20T11:25:52.350Z,87.74
2019-01-20T11:26:52.327Z,87.65
2019-01-20T11:27:52.300Z,87.18
2019-01-20T11:28:52.277Z,86.23
2019-01-20T11:29:52.238Z,85.38
2019-01-20T11:30:52.210Z,84.34
2019-01-20T11:31:52.184Z,83.97
2019-01-20T11:32:52.156Z,84.25
2019-01-20T11:33:52.131Z,83.30
2019-01-20T11:34:52.104Z,82.45
2019-01-20T11:35:52.072Z,82.54
2019-01-20T11:36:52.044Z,83.11
2019-01-20T11:37:52.019Z,82.73
2019-01-20T11:38:52.005Z,81.41
2019-01-20T11:39:51.966Z,81.60
2019-01-20T11:40:51.936Z,81.51
2019-01-20T11:41:51.918Z,82.07
2019-01-20T11:42:51.890Z,82.73
2019-01-20T11:43:51.854Z,83.02
2019-01-20T11:44:51.833Z,82.54
2019-01-20T11:45:51.802Z,81.13
2019-01-20T11:46:51.774Z,80.75
2019-01-20T11:47:51.757Z,80.56
2019-01-20T11:48:51.719Z,80.08
2019-01-20T11:49:51.694Z,79.99
2019-01-20T11:50:51.665Z,80.18
2019-01-20T11:51:51.638Z,79.14
2019-01-20T11:52:51.639Z,78.71
2019-01-20T11:53:51.592Z,78.58
2019-01-20T11:54:51.568Z,78.20
2019-01-20T11:55:51.537Z,78.71
2019-01-20T11:56:51.503Z,78.61
2019-01-20T11:57:51.494Z,78.86
2019-01-20T11:58:51.460Z,79.18
2019-01-20T11:59:51.421Z,79.14
2019-01-20T12:00:51.415Z,78.52
2019-01-20T12:01:51.364Z,78.71
2019-01-20T12:02:51.334Z,77.58
2019-01-20T12:03:51.314Z,76.91
2019-01-20T12:04:51.279Z,76.25
2019-01-20T12:05:51.256Z,75.87
2019-01-20T12:06:51.230Z,75.68
2019-01-20T12:07:51.201Z,76.06
2019-01-20T12:08:51.177Z,77.29
2019-01-20T12:09:51.154Z,76.91
2019-01-20T12:10:51.116Z,77.76
2019-01-20T12:11:51.098Z,77.29
2019-01-20T12:12:51.070Z,76.82
2019-01-20T12:13:51.035Z,76.72
2019-01-20T12:14:51.017Z,77.67
2019-01-20T12:15:50.983Z,78.23
2019-01-20T12:16:50.956Z,78.61
2019-01-20T12:17:50.936Z,78.14
2019-01-20T12:18:50.907Z,77.58
2019-01-20T12:19:50.875Z,77.58
2019-01-20T12:20:50.869Z,77.29
2019-01-20T12:21:50.820Z,77.39
2019-01-20T12:22:50.792Z,77.67
2019-01-20T12:23:50.769Z,76.82
2019-01-20T12:24:50.748Z,76.44
2019-01-20T12:25:50.710Z,75.96
2019-01-20T12:26:50.692Z,75.87
2019-01-20T12:27:50.663Z,75.02
2019-01-20T12:28:50.635Z,75.12
2019-01-20T12:29:51.971Z,75.21
2019-01-20T12:30:50.603Z,74.64
2019-01-20T12:31:50.551Z,75.31
2019-01-20T12:32:50.520Z,75.59
2019-01-20T12:33:50.492Z,75.49
2019-01-20T12:34:50.468Z,75.49
2019-01-20T12:35:50.454Z,75.49
2019-01-20T12:36:50.412Z,75.87
2019-01-20T12:37:50.392Z,76.06
2019-01-20T12:38:50.355Z,75.31
2019-01-20T12:39:50.332Z,75.68
2019-01-20T12:40:50.308Z,76.06
2019-01-20T12:41:50.274Z,75.68
2019-01-20T12:42:50.249Z,75.02
2019-01-20T12:43:50.222Z,75.59
2019-01-20T12:44:50.193Z,74.07
2019-01-20T12:45:50.165Z,74.26
2019-01-20T12:46:50.151Z,74.07
2019-01-20T12:47:50.113Z,75.59
2019-01-20T12:48:50.088Z,75.31
2019-01-20T12:49:50.060Z,75.40
2019-01-20T12:50:50.039Z,75.12
2019-01-20T12:51:50.005Z,75.59